Time;durP1;ratioP1;P1;durP2;ratioP2;P2;SDS_P1;SDS_P2;PMS_P1;PMS_P2;Temp;Humidity;BMP_temperature;BMP_pressure;BME280_temperature;BME280_humidity;BME280_pressure;Samples;Min_cycle;Max_cycle;Signal;HPM_P1;HPM_P2
2023/10/12 00:02:04;;;;;;;2.85;1.95;;;25.00;48.30;;;;;;5050617;28;20609;-73
2023/10/12 00:04:43;;;;;;;3.15;1.88;;;25.00;48.30;;;;;;5050511;28;20572;-73
2023/10/12 00:07:22;;;;;;;5.38;2.40;;;25.00;48.40;;;;;;5040530;28;20432;-73
2023/10/12 00:10:01;;;;;;;9.77;2.38;;;24.90;48.40;;;;;;5032931;28;20353;-73
2023/10/12 00:12:29;;;;;;;8.07;2.60;;;24.90;48.40;;;;;;5032930;28;20038;-73
2023/10/12 00:14:55;;;;;;;7.32;2.42;;;25.00;48.40;;;;;;5031885;28;20029;-73
2023/10/12 00:17:26;;;;;;;6.43;2.70;;;24.80;48.40;;;;;;5033039;28;20117;-73
2023/10/12 00:19:53;;;;;;;3.13;2.17;;;24.70;48.40;;;;;;5032823;28;20049;-73
2023/10/12 00:22:19;;;;;;;6.20;2.58;;;24.70;48.40;;;;;;5031223;28;20049;-72
2023/10/12 00:24:45;;;;;;;8.25;3.65;;;24.90;48.60;;;;;;5031337;28;20046;-73
2023/10/12 00:27:14;;;;;;;9.35;3.28;;;24.70;48.50;;;;;;5032738;28;20040;-73
2023/10/12 00:29:40;;;;;;;7.47;3.20;;;24.70;48.40;;;;;;5032436;28;20029;-74
2023/10/12 00:32:07;;;;;;;7.35;3.03;;;24.80;48.40;;;;;;5031069;28;20481;-73
2023/10/12 00:34:38;;;;;;;6.68;2.80;;;24.80;48.40;;;;;;5031184;28;20033;-73
2023/10/12 00:37:06;;;;;;;3.03;2.22;;;24.80;48.40;;;;;;5031309;28;20033;-72
2023/10/12 00:42:19;;;;;;;7.68;2.50;;;24.90;48.50;;;;;;5031167;28;20033;-72
2023/10/12 00:44:52;;;;;;;3.88;2.00;;;24.80;48.40;;;;;;5031947;28;20053;-73
2023/10/12 00:50:11;;;;;;;8.35;2.85;;;24.70;48.40;;;;;;5049332;28;20504;-73
2023/10/12 00:52:55;;;;;;;7.30;3.08;;;24.80;48.30;;;;;;5049404;28;20049;-73
2023/10/12 00:55:37;;;;;;;6.47;2.78;;;24.80;48.30;;;;;;5049445;28;20045;-72
2023/10/12 00:58:11;;;;;;;10.18;2.50;;;24.80;48.30;;;;;;5049556;28;20037;-73
2023/10/12 01:00:54;;;;;;;6.15;2.70;;;24.80;48.30;;;;;;5038770;28;20479;-72
2023/10/12 01:08:47;;;;;;;3.67;1.75;;;24.80;48.30;;;;;;5009406;28;20488;-73
2023/10/12 01:11:20;;;;;;;2.80;2.05;;;24.70;48.30;;;;;;4993544;28;20521;-72
2023/10/12 01:16:46;;;;;;;3.15;2.15;;;24.80;48.30;;;;;;4970873;28;20046;-73
2023/10/12 01:19:22;;;;;;;5.22;2.15;;;24.60;48.20;;;;;;4970754;28;20054;-73
2023/10/12 01:22:12;;;;;;;4.20;2.17;;;24.80;48.30;;;;;;4970407;28;20038;-73
2023/10/12 01:24:59;;;;;;;3.88;2.28;;;24.70;48.40;;;;;;4970569;28;20065;-72
2023/10/12 01:27:27;;;;;;;7.78;2.83;;;24.60;48.30;;;;;;4958990;28;20138;-73
2023/10/12 01:29:58;;;;;;;4.32;2.25;;;24.70;48.40;;;;;;4951371;29;20035;-72
2023/10/12 01:32:27;;;;;;;2.00;1.58;;;24.60;48.30;;;;;;4951406;29;20058;-71
2023/10/12 01:34:57;;;;;;;3.08;2.33;;;24.70;48.40;;;;;;4935312;29;20396;-73
2023/10/12 01:37:27;;;;;;;6.50;2.13;;;24.60;48.30;;;;;;4935499;29;20039;-73
2023/10/12 01:40:22;;;;;;;7.72;2.33;;;24.70;48.40;;;;;;4919786;29;20039;-72
2023/10/12 01:45:19;;;;;;;4.38;1.75;;;24.60;48.30;;;;;;4950870;28;20556;-72
2023/10/12 01:47:54;;;;;;;3.97;1.88;;;24.60;48.30;;;;;;4992974;28;20045;-73
2023/10/12 01:50:25;;;;;;;2.80;2.30;;;24.70;48.30;;;;;;4993031;28;20414;-72
2023/10/12 01:52:58;;;;;;;5.03;2.50;;;24.80;48.30;;;;;;5018847;28;20119;-73
2023/10/12 01:55:31;;;;;;;3.10;2.03;;;24.60;48.10;;;;;;5070275;28;20044;-72
2023/10/12 01:57:58;;;;;;;2.75;1.90;;;24.80;48.20;;;;;;5071631;28;20036;-74
2023/10/12 02:00:38;;;;;;;3.45;1.95;;;24.60;48.10;;;;;;5070392;28;20044;-72
2023/10/12 02:05:56;;;;;;;4.57;2.25;;;24.60;48.20;;;;;;5030147;28;20041;-72
2023/10/12 02:08:23;;;;;;;7.60;2.60;;;24.60;48.20;;;;;;5030409;28;20041;-73
2023/10/12 02:11:05;;;;;;;4.80;2.15;;;24.60;48.20;;;;;;5017196;28;20037;-72
2023/10/12 02:13:34;;;;;;;4.63;1.92;;;24.60;48.30;;;;;;5033947;28;20041;-72
2023/10/12 02:16:02;;;;;;;4.57;2.03;;;24.60;48.30;;;;;;5034026;28;20033;-70
2023/10/12 02:18:30;;;;;;;2.80;2.35;;;24.60;48.20;;;;;;5034167;28;20139;-72
2023/10/12 02:23:39;;;;;;;3.47;2.15;;;24.50;48.30;;;;;;5034996;28;20099;-72
2023/10/12 02:29:18;;;;;;;2.92;2.28;;;24.50;48.30;;;;;;5032478;28;20103;-72
2023/10/12 02:34:25;;;;;;;7.32;2.38;;;24.60;48.30;;;;;;5032548;28;20512;-72
2023/10/12 02:39:40;;;;;;;3.25;2.00;;;24.50;48.20;;;;;;4999480;28;20092;-72
2023/10/12 02:44:36;;;;;;;3.13;1.83;;;24.50;48.20;;;;;;5015866;28;20042;-72
2023/10/12 02:47:12;;;;;;;5.07;2.10;;;24.50;48.20;;;;;;5015611;28;20525;-73
2023/10/12 02:49:41;;;;;;;4.43;2.30;;;24.70;48.30;;;;;;5032209;28;20127;-73
2023/10/12 02:52:08;;;;;;;3.67;2.22;;;24.60;48.10;;;;;;5032247;28;20044;-71
2023/10/12 02:54:55;;;;;;;5.18;2.38;;;24.50;48.10;;;;;;5032389;28;20060;-72
2023/10/12 02:57:25;;;;;;;2.83;1.98;;;24.50;48.10;;;;;;5041201;28;20456;-72
2023/10/12 03:00:15;;;;;;;3.63;2.25;;;24.60;48.10;;;;;;5052037;28;20055;-72
2023/10/12 03:02:44;;;;;;;3.33;1.80;;;24.50;48.10;;;;;;5051959;28;20397;-73
2023/10/12 03:05:17;;;;;;;9.50;2.22;;;24.40;48.00;;;;;;5040021;28;20054;-73
2023/10/12 03:07:44;;;;;;;2.05;1.85;;;24.60;48.10;;;;;;5074387;28;20041;-70
2023/10/12 03:10:29;;;;;;;2.47;2.00;;;24.50;48.10;;;;;;5073550;28;20446;-72
2023/10/12 03:13:04;;;;;;;2.20;1.85;;;24.40;48.00;;;;;;5073350;28;20062;-73
2023/10/12 03:15:46;;;;;;;;;;;24.40;48.00;;;;;;5075342;28;20036;-72
2023/10/12 03:18:13;;;;;;;3.15;2.08;;;24.40;48.00;;;;;;5074472;28;20229;-72
2023/10/12 03:20:52;;;;;;;5.57;1.90;;;24.40;48.00;;;;;;5073112;28;20041;-72
2023/10/12 03:23:19;;;;;;;3.92;2.13;;;24.40;48.10;;;;;;5073982;28;20048;-72
2023/10/12 03:25:46;;;;;;;7.50;2.10;;;24.40;48.10;;;;;;5074354;28;20071;-73
2023/10/12 03:28:29;;;;;;;4.22;2.35;;;24.50;48.30;;;;;;5072683;28;20105;-73
2023/10/12 03:33:55;;;;;;;2.85;1.70;;;24.50;48.20;;;;;;5074131;28;20407;-73
2023/10/12 03:36:23;;;;;;;4.95;2.20;;;24.40;48.10;;;;;;5073784;28;20039;-72
2023/10/12 03:39:06;;;;;;;4.05;2.05;;;24.40;48.10;;;;;;5056025;28;20047;-72
2023/10/12 03:44:18;;;;;;;1.60;1.50;;;24.30;48.10;;;;;;5072393;28;20119;-76
2023/10/12 03:46:56;;;;;;;1.65;1.55;;;24.60;48.20;;;;;;5072128;28;20400;-81
2023/10/12 03:49:45;;;;;;;2.28;1.33;;;24.50;48.30;;;;;;5072168;28;20779;-78
2023/10/12 03:52:14;;;;;;;2.20;1.20;;;24.50;48.30;;;;;;5074476;28;20024;-78
2023/10/12 03:54:55;;;;;;;1.98;1.77;;;24.40;48.00;;;;;;5073228;28;20032;-78
2023/10/12 03:57:39;;;;;;;2.10;1.27;;;24.50;48.10;;;;;;5073212;28;20111;-78
2023/10/12 04:05:16;;;;;;;;;;;24.50;48.10;;;;;;5014587;28;20137;-67
2023/10/12 04:08:00;;;;;;;2.88;1.80;;;24.50;47.80;;;;;;5064838;28;19913;-69
2023/10/12 04:21:17;;;;;;;5.40;2.47;;;24.40;43.70;;;;;;5032431;28;20037;-65
2023/10/12 04:28:56;;;;;;;5.97;3.10;;;24.90;47.30;;;;;;5033832;28;20471;-66
2023/10/12 04:36:33;;;;;;;7.70;3.28;;;24.80;49.30;;;;;;5052312;28;20043;-63
2023/10/12 04:39:11;;;;;;;9.30;3.28;;;24.80;49.00;;;;;;5051807;28;20500;-65
2023/10/12 04:41:38;;;;;;;6.18;2.90;;;25.00;48.70;;;;;;5050883;28;20033;-65
2023/10/12 04:44:35;;;;;;;5.90;3.22;;;24.90;48.60;;;;;;5051931;28;20369;-64
2023/10/12 04:47:12;;;;;;;8.43;3.42;;;25.00;47.80;;;;;;5050574;28;20040;-65
2023/10/12 04:57:31;;;;;;;7.45;3.13;;;25.00;50.60;;;;;;5051985;28;20469;-69
2023/10/12 05:05:15;;;;;;;3.28;2.50;;;25.10;48.60;;;;;;5051912;28;20100;-69
2023/10/12 05:07:57;;;;;;;5.00;3.15;;;25.00;50.90;;;;;;5051676;28;20392;-69
2023/10/12 05:10:31;;;;;;;5.13;2.78;;;25.00;49.40;;;;;;5050260;28;20460;-70
2023/10/12 05:13:04;;;;;;;6.28;3.90;;;24.90;48.40;;;;;;5050327;28;20525;-70
2023/10/12 05:15:39;;;;;;;10.60;2.58;;;24.90;48.30;;;;;;5050574;28;20114;-72
2023/10/12 05:18:13;;;;;;;5.60;3.20;;;24.80;48.50;;;;;;5051628;28;20448;-70
2023/10/12 05:20:42;;;;;;;4.93;2.83;;;24.80;48.20;;;;;;5050372;28;20117;-71
2023/10/12 05:23:09;;;;;;;4.85;3.28;;;24.70;48.30;;;;;;5042217;28;20045;-70
2023/10/12 05:25:48;;;;;;;6.88;2.47;;;24.90;48.40;;;;;;5051144;28;20048;-70
2023/10/12 05:28:15;;;;;;;4.60;2.50;;;24.90;48.40;;;;;;5033054;28;20033;-72
2023/10/12 05:30:55;;;;;;;3.22;2.60;;;24.70;48.40;;;;;;5051192;28;20037;-69
2023/10/12 05:36:11;;;;;;;2.90;1.77;;;24.80;48.60;;;;;;5050698;28;20047;-66
2023/10/12 05:38:39;;;;;;;4.85;2.28;;;24.90;48.80;;;;;;5051821;28;20029;-77
2023/10/12 05:41:10;;;;;;;5.60;2.65;;;24.90;48.90;;;;;;5051438;28;20042;-69
2023/10/12 05:43:40;;;;;;;3.72;2.42;;;24.70;49.00;;;;;;5050443;28;20068;-70
2023/10/12 05:46:13;;;;;;;7.57;3.38;;;24.90;49.20;;;;;;5050525;28;20040;-70
2023/10/12 05:48:42;;;;;;;5.13;2.60;;;25.00;49.30;;;;;;5050913;28;20464;-74
2023/10/12 05:51:10;;;;;;;5.55;3.63;;;25.00;49.30;;;;;;5050757;28;20106;-69
2023/10/12 05:53:37;;;;;;;5.93;2.70;;;24.90;49.40;;;;;;5050920;28;20029;-68
2023/10/12 05:56:06;;;;;;;6.32;2.60;;;24.90;49.50;;;;;;5042318;28;20380;-68
2023/10/12 05:58:34;;;;;;;7.70;2.65;;;25.00;49.80;;;;;;5050806;28;20037;-70
2023/10/12 06:01:08;;;;;;;6.53;2.90;;;24.90;49.90;;;;;;5049327;28;20480;-69
2023/10/12 06:03:46;;;;;;;5.55;2.42;;;24.80;49.70;;;;;;5047043;28;20056;-66
2023/10/12 06:06:13;;;;;;;12.10;3.55;;;25.00;53.70;;;;;;5050882;28;20036;-72
2023/10/12 06:08:40;;;;;;;5.57;2.28;;;25.60;55.20;;;;;;5050683;28;20579;-71
2023/10/12 06:11:09;;;;;;;5.93;2.97;;;25.90;56.50;;;;;;5051108;28;20032;-70
2023/10/12 06:13:42;;;;;;;5.68;2.60;;;25.80;52.20;;;;;;5050787;28;20025;-69
2023/10/12 06:16:14;;;;;;;;;;;25.60;50.80;;;;;;5033717;28;20044;-69
2023/10/12 06:18:44;;;;;;;6.25;3.28;;;25.30;50.50;;;;;;5051067;28;19909;-69
2023/10/12 06:21:19;;;;;;;4.22;3.00;;;25.40;50.40;;;;;;5049454;28;20037;-69
2023/10/12 06:23:49;;;;;;;8.75;2.35;;;25.30;50.50;;;;;;5050435;28;20053;-73
2023/10/12 06:26:37;;;;;;;9.00;3.08;;;25.20;50.50;;;;;;5032585;28;20489;-69
2023/10/12 06:29:02;;;;;;;6.45;2.80;;;25.20;50.50;;;;;;5050327;28;20040;-69
2023/10/12 06:31:31;;;;;;;5.30;2.97;;;25.20;50.50;;;;;;5050738;28;20483;-70
2023/10/12 06:34:01;;;;;;;10.02;3.47;;;25.20;50.50;;;;;;5048992;28;20029;-69
2023/10/12 06:36:39;;;;;;;4.80;2.60;;;25.10;50.50;;;;;;5049446;28;20052;-69
2023/10/12 06:46:48;;;;;;;5.80;3.38;;;25.00;50.20;;;;;;5049056;28;20032;-68
2023/10/12 06:49:18;;;;;;;5.60;3.10;;;25.10;50.20;;;;;;5032706;28;20078;-71
2023/10/12 06:51:53;;;;;;;4.63;2.88;;;25.10;50.10;;;;;;5050527;28;20096;-69
2023/10/12 06:54:31;;;;;;;4.43;2.67;;;25.10;50.20;;;;;;5050348;28;20033;-70
2023/10/12 06:57:31;;;;;;;6.65;3.80;;;25.00;50.10;;;;;;5053295;28;20078;-70
2023/10/12 07:02:33;;;;;;;6.15;3.60;;;25.00;50.10;;;;;;5052757;28;20037;-69
2023/10/12 07:05:04;;;;;;;8.02;3.63;;;25.10;50.00;;;;;;5051962;28;20130;-67
2023/10/12 07:07:40;;;;;;;6.57;3.75;;;25.00;52.70;;;;;;5052646;28;20037;-66
2023/10/12 07:12:44;;;;;;;5.85;3.35;;;24.80;51.70;;;;;;5055704;28;20379;-67
2023/10/12 07:15:23;;;;;;;8.05;3.90;;;24.80;51.30;;;;;;5073639;28;20044;-66
2023/10/12 07:17:50;;;;;;;12.43;4.15;;;24.80;51.50;;;;;;5073691;28;20507;-67
2023/10/12 07:20:29;;;;;;;4.20;1.83;;;24.90;53.10;;;;;;5073395;28;20112;-68
2023/10/12 07:22:55;;;;;;;2.83;1.88;;;24.80;53.10;;;;;;5073157;28;20041;-68
2023/10/12 07:25:23;;;;;;;7.22;2.30;;;24.80;52.80;;;;;;5055898;28;20032;-69
2023/10/12 07:27:56;;;;;;;10.77;2.78;;;24.70;52.80;;;;;;5053027;28;20045;-66
2023/10/12 07:30:30;;;;;;;8.15;2.83;;;24.90;53.00;;;;;;5035530;28;20116;-66
2023/10/12 07:33:07;;;;;;;15.30;3.00;;;24.80;52.50;;;;;;5032812;28;20065;-67
2023/10/12 07:35:34;;;;;;;4.00;1.85;;;24.80;52.50;;;;;;5031851;28;20045;-67
2023/10/12 07:38:02;;;;;;;6.88;1.90;;;24.70;52.70;;;;;;5033054;28;20405;-69
2023/10/12 07:40:41;;;;;;;25.80;2.50;;;24.80;52.80;;;;;;5032819;28;20033;-69
2023/10/12 07:43:08;;;;;;;4.40;1.45;;;24.80;52.70;;;;;;5016881;28;20508;-67
2023/10/12 07:45:48;;;;;;;5.47;2.35;;;24.70;52.30;;;;;;5050660;28;20176;-68
2023/10/12 07:48:31;;;;;;;2.60;1.83;;;24.80;52.20;;;;;;5033954;28;20059;-68
2023/10/12 07:51:15;;;;;;;7.68;2.33;;;24.90;52.10;;;;;;5033700;28;20094;-66
2023/10/12 07:53:45;;;;;;;7.63;1.83;;;24.70;51.90;;;;;;5050464;28;20228;-66
2023/10/12 07:56:17;;;;;;;6.18;1.83;;;24.90;52.00;;;;;;5050370;28;20037;-66
2023/10/12 07:58:47;;;;;;;4.35;1.58;;;24.80;52.10;;;;;;5033734;28;20049;-66
2023/10/12 08:03:51;;;;;;;2.53;1.92;;;24.70;52.30;;;;;;5052647;28;20045;-66
2023/10/12 08:06:31;;;;;;;5.53;1.85;;;24.90;52.60;;;;;;5049738;28;20041;-67
2023/10/12 08:09:22;;;;;;;5.95;2.20;;;24.90;52.80;;;;;;5049766;28;20144;-66
2023/10/12 08:11:48;;;;;;;5.07;2.42;;;24.80;52.90;;;;;;5029952;28;20075;-66
2023/10/12 08:20:12;;;;;;;3.22;2.10;;;24.90;53.10;;;;;;5013501;28;20174;-66
2023/10/12 08:22:38;;;;;;;2.78;1.63;;;24.90;52.60;;;;;;5029501;28;20393;-66
2023/10/12 08:25:04;;;;;;;8.25;3.05;;;24.80;52.10;;;;;;5029654;28;20116;-69
2023/10/12 08:30:48;;;;;;;8.38;2.70;;;24.90;52.30;;;;;;4990300;28;20046;-70
2023/10/12 08:33:15;;;;;;;4.38;2.00;;;24.90;52.00;;;;;;4990313;28;20046;-68
2023/10/12 08:38:53;;;;;;;8.43;2.38;;;25.00;53.90;;;;;;4971001;28;20054;-69
2023/10/12 08:44:04;;;;;;;3.13;1.45;;;25.20;53.30;;;;;;4953089;28;20047;-68
2023/10/12 08:46:51;;;;;;;5.07;2.22;;;25.20;52.00;;;;;;4951221;28;20035;-69
2023/10/12 08:49:52;;;;;;;74.75;30.27;;;25.30;53.30;;;;;;4935135;29;20051;-72
2023/10/12 08:52:27;;;;;;;31.67;12.85;;;25.50;52.90;;;;;;4951361;28;20055;-70
2023/10/12 08:54:58;;;;;;;16.13;6.68;;;25.60;51.70;;;;;;4934160;28;20238;-69
2023/10/12 08:57:42;;;;;;;15.30;7.18;;;25.60;51.90;;;;;;4932190;29;20040;-69
2023/10/12 09:00:24;;;;;;;13.05;7.18;;;25.60;52.00;;;;;;4931717;29;20426;-69
2023/10/12 09:03:00;;;;;;;9.60;3.83;;;25.80;52.00;;;;;;4916441;29;20554;-70
2023/10/12 09:05:33;;;;;;;12.32;5.95;;;25.60;51.70;;;;;;4916158;29;20039;-71
2023/10/12 09:10:49;;;;;;;13.93;4.85;;;25.60;51.70;;;;;;4970421;28;20043;-69
2023/10/12 09:13:18;;;;;;;15.70;4.72;;;25.60;51.60;;;;;;4958771;28;20133;-70
2023/10/12 09:15:46;;;;;;;8.25;3.95;;;25.60;51.60;;;;;;5031413;28;20489;-71
2023/10/12 09:18:17;;;;;;;5.82;3.42;;;25.50;51.50;;;;;;5029711;28;20048;-71
2023/10/12 09:23:31;;;;;;;6.65;3.33;;;25.50;51.30;;;;;;5036309;28;20573;-70
2023/10/12 09:36:37;;;;;;;9.30;4.65;;;25.90;54.20;;;;;;5050907;28;20055;-69
2023/10/12 09:39:11;;;;;;;4.55;1.92;;;26.50;64.10;;;;;;5031130;28;20037;-70
2023/10/12 09:41:40;;;;;;;11.00;2.78;;;26.60;54.00;;;;;;5029521;28;20057;-65
2023/10/12 09:44:12;;;;;;;4.88;2.47;;;26.40;51.70;;;;;;5029722;28;20044;-68
2023/10/12 09:46:46;;;;;;;5.03;3.00;;;26.50;52.00;;;;;;5013135;28;20440;-65
2023/10/12 09:49:27;;;;;;;10.45;3.55;;;26.50;53.90;;;;;;5029191;28;20045;-67
2023/10/12 09:52:00;;;;;;;8.13;2.55;;;26.40;55.60;;;;;;5030539;28;20557;-67
2023/10/12 09:54:45;;;;;;;6.28;3.35;;;26.50;57.00;;;;;;5037256;28;20036;-68
2023/10/12 09:57:27;;;;;;;9.32;3.80;;;26.60;52.90;;;;;;5049287;28;20037;-68
2023/10/12 09:59:59;;;;;;;8.93;3.28;;;26.60;52.50;;;;;;5048998;28;20408;-68
2023/10/12 10:02:30;;;;;;;4.63;3.42;;;26.50;52.90;;;;;;5049240;28;20111;-68
2023/10/12 10:05:05;;;;;;;5.68;2.63;;;26.60;51.50;;;;;;5050435;28;20035;-67
2023/10/12 10:07:36;;;;;;;4.95;2.20;;;26.50;50.20;;;;;;5050371;28;20075;-69
2023/10/12 10:10:16;;;;;;;4.63;2.60;;;26.30;49.60;;;;;;5047274;28;20040;-71
2023/10/12 10:12:45;;;;;;;4.35;2.70;;;26.30;48.60;;;;;;5049321;28;20508;-69
2023/10/12 10:15:14;;;;;;;4.22;2.33;;;26.20;48.10;;;;;;5050587;28;20025;-70
2023/10/12 10:17:49;;;;;;;8.88;2.42;;;26.10;47.90;;;;;;5049370;28;20051;-70
2023/10/12 10:23:01;;;;;;;4.85;2.25;;;26.10;47.70;;;;;;5050601;28;20049;-67
2023/10/12 10:25:56;;;;;;;7.60;2.22;;;26.10;47.70;;;;;;5050665;28;20547;-68
2023/10/12 10:28:27;;;;;;;2.47;1.73;;;26.20;47.70;;;;;;5045223;28;20109;-70
2023/10/12 10:31:03;;;;;;;5.80;2.45;;;26.10;47.60;;;;;;5030667;28;20041;-67
2023/10/12 10:33:36;;;;;;;3.60;2.00;;;26.20;47.60;;;;;;5017065;28;20045;-67
2023/10/12 10:36:10;;;;;;;3.95;2.20;;;26.10;47.60;;;;;;5033118;28;20111;-68
2023/10/12 10:41:18;;;;;;;7.63;2.22;;;26.00;47.50;;;;;;5033207;28;20483;-73
2023/10/12 10:43:46;;;;;;;3.22;2.22;;;26.00;47.70;;;;;;5035724;28;20101;-74
2023/10/12 10:46:16;;;;;;;2.33;1.77;;;26.00;47.80;;;;;;5034180;28;20029;-73
2023/10/12 10:48:49;;;;;;;4.65;1.90;;;26.00;47.90;;;;;;5034243;28;20064;-72
2023/10/12 10:51:19;;;;;;;3.95;2.22;;;25.90;47.50;;;;;;5032825;28;20033;-71
2023/10/12 10:53:52;;;;;;;9.18;1.83;;;25.90;47.60;;;;;;5034135;28;20192;-72
2023/10/12 10:56:32;;;;;;;1.75;1.65;;;25.80;47.60;;;;;;5034144;28;20378;-76
2023/10/12 10:59:02;;;;;;;3.08;2.03;;;25.80;47.70;;;;;;5034336;28;20026;-73
2023/10/12 11:01:28;;;;;;;4.65;2.03;;;25.90;47.80;;;;;;5032508;28;20030;-74
2023/10/12 11:03:58;;;;;;;7.85;2.38;;;25.70;47.80;;;;;;5032938;28;20044;-72
2023/10/12 11:06:27;;;;;;;4.57;2.10;;;25.80;47.90;;;;;;5026640;28;20045;-73
2023/10/12 11:09:06;;;;;;;2.20;1.90;;;25.70;47.90;;;;;;5036169;28;20033;-73
2023/10/12 11:11:38;;;;;;;3.22;2.05;;;25.70;47.90;;;;;;5052181;28;20037;-71
2023/10/12 11:14:08;;;;;;;2.85;2.00;;;25.70;48.00;;;;;;5052341;28;20033;-73
2023/10/12 11:16:36;;;;;;;3.15;1.88;;;25.70;48.10;;;;;;5055382;28;20442;-70
2023/10/12 11:19:08;;;;;;;2.65;1.63;;;25.70;48.20;;;;;;5053663;28;20108;-73
2023/10/12 11:21:34;;;;;;;6.30;2.40;;;25.50;48.10;;;;;;5053361;28;20519;-71
2023/10/12 11:24:01;;;;;;;5.93;2.63;;;25.60;48.30;;;;;;5053785;28;20159;-72
2023/10/12 11:26:39;;;;;;;4.43;2.00;;;25.40;48.60;;;;;;5052977;28;20041;-72
2023/10/12 11:29:06;;;;;;;3.40;2.28;;;25.60;48.70;;;;;;5035956;28;20056;-69
2023/10/12 11:31:36;;;;;;;2.72;1.90;;;25.40;48.40;;;;;;5019233;28;20068;-69
2023/10/12 11:34:11;;;;;;;3.95;2.03;;;25.40;48.70;;;;;;5053509;28;20479;-70
2023/10/12 11:36:38;;;;;;;5.82;2.00;;;25.40;48.80;;;;;;5053190;28;20045;-71
2023/10/12 11:39:19;;;;;;;2.78;1.80;;;25.40;48.90;;;;;;5053138;28;20044;-71
2023/10/12 11:42:07;;;;;;;2.97;1.95;;;25.30;49.00;;;;;;5032018;28;20034;-70
2023/10/12 11:44:36;;;;;;;2.83;2.10;;;25.40;49.40;;;;;;5033448;28;20172;-70
2023/10/12 11:47:06;;;;;;;10.20;2.53;;;25.30;49.40;;;;;;5031651;28;20037;-69
2023/10/12 11:50:09;;;;;;;4.85;2.13;;;25.30;49.40;;;;;;5032797;28;20076;-68
2023/10/12 11:52:39;;;;;;;3.25;2.45;;;25.30;50.40;;;;;;4991155;28;20038;-70
2023/10/12 11:55:07;;;;;;;2.53;1.75;;;25.50;52.00;;;;;;4991254;28;20612;-68
2023/10/12 11:57:35;;;;;;;6.20;2.33;;;25.50;49.60;;;;;;4991191;28;20038;-67
2023/10/12 12:02:53;;;;;;;3.75;2.08;;;25.40;49.20;;;;;;4974965;28;20088;-70
2023/10/12 12:05:21;;;;;;;2.78;2.13;;;25.50;49.20;;;;;;4990862;28;20053;-69
2023/10/12 12:07:51;;;;;;;4.38;2.10;;;25.40;49.20;;;;;;4990755;28;20042;-69
2023/10/12 12:10:29;;;;;;;6.05;2.10;;;25.40;49.20;;;;;;4990502;28;20203;-69
2023/10/12 12:12:58;;;;;;;4.40;2.17;;;25.50;49.10;;;;;;4990947;28;20114;-68
2023/10/12 12:15:24;;;;;;;7.05;2.30;;;25.50;49.10;;;;;;4968582;28;20090;-69
2023/10/12 12:17:51;;;;;;;5.10;2.70;;;25.60;49.00;;;;;;4970754;28;20042;-67
2023/10/12 12:20:21;;;;;;;3.67;1.88;;;25.50;49.00;;;;;;4970889;28;20050;-69
2023/10/12 12:22:48;;;;;;;6.95;2.35;;;25.50;48.90;;;;;;4971147;28;20503;-69
2023/10/12 12:25:32;;;;;;;4.63;2.40;;;25.50;48.90;;;;;;4972903;28;20082;-71
2023/10/12 12:28:01;;;;;;;5.38;2.03;;;25.80;48.90;;;;;;4997124;28;20520;-69
2023/10/12 12:30:35;;;;;;;2.78;1.90;;;25.50;48.90;;;;;;5013248;28;20045;-67
2023/10/12 12:33:15;;;;;;;3.00;1.75;;;25.60;48.90;;;;;;5013290;28;20038;-71
2023/10/12 12:35:45;;;;;;;4.00;1.85;;;25.60;48.90;;;;;;5029532;28;20108;-68
2023/10/12 12:38:22;;;;;;;1.67;1.58;;;25.60;48.90;;;;;;5029640;28;20029;-66
2023/10/12 12:40:49;;;;;;;4.53;2.05;;;25.40;49.00;;;;;;5029318;28;20051;-67
2023/10/12 12:43:15;;;;;;;3.72;1.92;;;25.40;49.10;;;;;;5011434;28;20049;-66
2023/10/12 12:45:41;;;;;;;6.35;2.30;;;25.50;49.30;;;;;;5033638;28;20049;-68
2023/10/12 12:48:07;;;;;;;6.93;2.03;;;25.50;51.50;;;;;;5052119;28;20055;-66
2023/10/12 12:50:33;;;;;;;7.55;1.80;;;25.60;55.70;;;;;;5051760;28;20037;-67
2023/10/12 12:52:59;;;;;;;5.72;2.47;;;25.60;56.30;;;;;;5051742;28;20091;-68
2023/10/12 12:55:27;;;;;;;5.18;2.72;;;25.60;55.40;;;;;;5051840;28;20380;-67
2023/10/12 12:57:56;;;;;;;3.97;2.28;;;25.50;54.60;;;;;;5051728;28;20045;-67
2023/10/12 13:00:22;;;;;;;11.00;2.15;;;25.60;53.50;;;;;;5052399;28;20132;-67
2023/10/12 13:02:49;;;;;;;3.33;1.77;;;25.60;52.80;;;;;;5051621;28;20040;-67
2023/10/12 13:05:15;;;;;;;6.30;1.80;;;25.60;52.20;;;;;;5051814;28;20047;-68
2023/10/12 13:07:45;;;;;;;4.90;2.03;;;25.60;52.00;;;;;;5051621;28;20029;-68
2023/10/12 13:10:12;;;;;;;2.25;1.58;;;25.70;51.60;;;;;;5051660;28;20064;-67
2023/10/12 13:12:41;;;;;;;5.55;2.35;;;25.60;51.10;;;;;;5051396;28;20033;-67
2023/10/12 13:15:10;;;;;;;3.03;1.67;;;25.50;50.80;;;;;;5055116;28;20467;-67
2023/10/12 13:17:39;;;;;;;6.20;2.33;;;25.60;50.70;;;;;;5035396;28;20370;-70
2023/10/12 13:20:07;;;;;;;3.22;1.58;;;25.60;50.60;;;;;;5030237;28;20028;-68
2023/10/12 13:22:35;;;;;;;3.92;1.85;;;25.60;50.50;;;;;;5031374;28;20093;-67
2023/10/12 13:25:03;;;;;;;2.85;1.48;;;25.60;50.50;;;;;;5031665;28;20029;-67
2023/10/12 13:27:32;;;;;;;2.85;2.00;;;25.50;50.40;;;;;;5031760;28;20041;-67
2023/10/12 13:30:09;;;;;;;4.32;1.92;;;25.60;50.40;;;;;;5030500;28;20042;-66
2023/10/12 13:32:38;;;;;;;5.95;1.90;;;25.50;50.30;;;;;;5031274;28;20044;-68
2023/10/12 13:37:51;;;;;;;1.33;1.20;;;25.70;50.10;;;;;;5031251;28;20026;-66
2023/10/12 13:40:17;;;;;;;2.65;1.90;;;25.60;49.90;;;;;;5031337;28;20103;-66
2023/10/12 13:42:44;;;;;;;6.90;2.08;;;25.70;49.70;;;;;;5029851;28;20437;-67
2023/10/12 13:45:13;;;;;;;4.30;2.03;;;25.60;49.60;;;;;;5031153;28;20485;-67
2023/10/12 13:47:42;;;;;;;4.93;1.90;;;25.50;49.60;;;;;;5031061;28;20033;-66
2023/10/12 13:50:12;;;;;;;5.45;1.85;;;25.50;49.40;;;;;;5031146;28;20041;-65
2023/10/12 13:52:39;;;;;;;4.57;2.13;;;25.50;49.30;;;;;;5030974;28;20034;-66
2023/10/12 13:55:12;;;;;;;8.10;1.98;;;25.60;49.20;;;;;;5028634;28;20069;-67
2023/10/12 13:57:55;;;;;;;4.38;2.28;;;25.50;48.80;;;;;;5030983;28;20096;-67
2023/10/12 14:00:26;;;;;;;8.30;2.03;;;25.40;48.90;;;;;;5031105;28;20033;-67
2023/10/12 14:02:54;;;;;;;7.00;2.13;;;25.50;48.60;;;;;;5030909;28;20033;-67
2023/10/12 14:05:27;;;;;;;4.20;1.90;;;25.40;48.50;;;;;;5031978;28;20052;-66
2023/10/12 14:08:00;;;;;;;4.97;2.25;;;25.40;48.10;;;;;;5035084;28;20453;-67
2023/10/12 14:10:26;;;;;;;;;;;25.40;48.10;;;;;;5033479;28;20033;-68
2023/10/12 14:12:56;;;;;;;4.80;2.08;;;25.40;48.20;;;;;;5032603;28;20316;-69
2023/10/12 14:15:29;;;;;;;2.38;1.98;;;25.40;48.20;;;;;;5032475;28;20092;-69
2023/10/12 14:17:56;;;;;;;4.78;2.22;;;25.30;48.20;;;;;;5032235;28;20044;-69
2023/10/12 14:20:32;;;;;;;3.97;2.00;;;25.20;48.20;;;;;;5032197;28;20038;-67
2023/10/12 14:23:05;;;;;;;4.82;2.17;;;25.30;48.20;;;;;;5030788;28;20049;-70
2023/10/12 14:25:43;;;;;;;;;;;25.40;48.20;;;;;;5044536;28;20041;-71
2023/10/12 14:28:11;;;;;;;4.50;2.08;;;25.40;48.20;;;;;;5051129;28;19917;-68
2023/10/12 14:30:38;;;;;;;2.67;2.00;;;25.40;48.20;;;;;;5051904;28;20041;-70
2023/10/12 14:33:06;;;;;;;4.45;2.08;;;25.30;48.30;;;;;;5050862;28;20041;-71
2023/10/12 14:35:40;;;;;;;3.35;2.38;;;25.40;48.30;;;;;;5051361;28;20124;-71
2023/10/12 14:38:07;;;;;;;3.20;2.22;;;25.40;48.20;;;;;;5051816;28;20036;-72
2023/10/12 14:40:35;;;;;;;3.90;2.13;;;25.40;48.30;;;;;;5036690;28;20120;-70
2023/10/12 14:43:10;;;;;;;4.20;1.92;;;25.30;48.30;;;;;;5030689;28;20056;-68
2023/10/12 14:45:43;;;;;;;7.05;2.03;;;25.40;48.30;;;;;;5034174;28;20045;-68
2023/10/12 14:48:10;;;;;;;5.97;1.98;;;25.50;48.20;;;;;;5034243;28;20179;-68
2023/10/12 14:50:45;;;;;;;3.75;1.45;;;25.30;48.20;;;;;;5033830;28;20068;-70
2023/10/12 14:53:21;;;;;;;2.35;1.92;;;25.40;48.20;;;;;;5045145;28;20125;-68
2023/10/12 14:55:48;;;;;;;5.78;1.88;;;25.40;48.30;;;;;;5042673;28;20054;-67
2023/10/12 14:58:16;;;;;;;3.03;1.92;;;25.50;50.10;;;;;;5053827;28;20487;-67
2023/10/12 15:00:45;;;;;;;5.47;2.65;;;25.70;49.70;;;;;;5046719;28;20111;-69
2023/10/12 15:03:21;;;;;;;4.05;2.47;;;25.90;51.80;;;;;;5053941;28;20033;-72
2023/10/12 15:05:55;;;;;;;10.02;2.33;;;25.80;49.40;;;;;;5053901;28;20028;-69
2023/10/12 15:08:26;;;;;;;2.67;2.03;;;25.70;48.40;;;;;;5052553;28;20036;-69
2023/10/12 15:10:56;;;;;;;4.38;2.30;;;25.70;48.10;;;;;;5053543;28;20459;-69
2023/10/12 15:13:25;;;;;;;4.28;2.67;;;25.70;50.50;;;;;;5052977;28;20040;-69
2023/10/12 15:15:53;;;;;;;3.08;2.13;;;25.70;48.90;;;;;;5064900;28;20060;-69
2023/10/12 15:18:23;;;;;;;3.92;2.22;;;25.80;47.00;;;;;;5073563;28;20641;-70
2023/10/12 15:20:52;;;;;;;5.53;2.13;;;25.80;45.80;;;;;;5073615;28;20048;-70
2023/10/12 15:23:21;;;;;;;2.40;2.20;;;25.80;45.80;;;;;;5073735;28;20495;-69
2023/10/12 15:25:56;;;;;;;5.50;2.25;;;25.90;46.10;;;;;;5063885;28;20407;-72
2023/10/12 15:28:22;;;;;;;8.88;2.53;;;25.80;46.20;;;;;;5053653;28;20117;-71
2023/10/12 15:30:48;;;;;;;7.65;2.45;;;25.80;46.20;;;;;;5050778;28;20132;-70
2023/10/12 15:33:15;;;;;;;6.60;3.50;;;25.70;46.20;;;;;;5051089;28;20052;-68